Time;durP1;ratioP1;P1;durP2;ratioP2;P2;SDS_P1;SDS_P2;PMS_P1;PMS_P2;Temp;Humidity;BMP_temperature;BMP_pressure;BME280_temperature;BME280_humidity;BME280_pressure;Samples;Min_cycle;Max_cycle;Signal;HPM_P1;HPM_P2
2022/01/11 00:01:09;;;;;;;24.20;13.27;;;;;;;0.83;84.18;101711.44;4952761;29;20449;-79
2022/01/11 00:03:37;;;;;;;20.33;12.10;;;;;;;0.79;84.17;101711.91;4954069;29;20453;-78
2022/01/11 00:06:19;;;;;;;25.10;14.07;;;;;;;0.74;84.43;101707.03;4951496;29;20425;-78
2022/01/11 00:08:45;;;;;;;21.17;12.82;;;;;;;0.66;84.62;101708.78;4952657;29;20572;-78
2022/01/11 00:11:11;;;;;;;22.08;13.68;;;;;;;0.64;85.25;101698.25;4947635;28;20931;-78
2022/01/11 00:13:39;;;;;;;23.83;13.50;;;;;;;0.63;85.65;101699.22;4933996;29;20455;-78
2022/01/11 00:16:06;;;;;;;20.27;11.93;;;;;;;0.71;85.60;101696.66;4948723;29;20484;-78
2022/01/11 00:18:32;;;;;;;22.77;12.75;;;;;;;0.84;85.84;101696.28;4952855;29;20409;-78
2022/01/11 00:20:58;;;;;;;22.83;12.13;;;;;;;0.92;85.27;101691.03;4950368;28;20413;-77
2022/01/11 00:25:50;;;;;;;19.90;12.67;;;;;;;0.98;85.25;101695.75;4953863;29;20441;-78
2022/01/11 00:28:17;;;;;;;19.70;12.27;;;;;;;1.02;84.83;101705.16;4937356;29;20417;-77
2022/01/11 00:30:45;;;;;;;22.60;12.65;;;;;;;1.04;85.18;101709.34;4918537;29;20487;-78
2022/01/11 00:33:16;;;;;;;17.35;11.50;;;;;;;1.07;85.14;101702.84;4952102;29;20980;-78
2022/01/11 00:35:44;;;;;;;18.67;12.15;;;;;;;1.14;84.64;101705.75;4954514;29;20426;-78
2022/01/11 00:38:16;;;;;;;23.30;12.65;;;;;;;1.16;84.75;101706.41;4954454;29;20402;-78
2022/01/11 00:40:46;;;;;;;22.75;13.00;;;;;;;1.19;84.45;101711.44;4952392;29;20436;-78
2022/01/11 00:43:12;;;;;;;23.38;13.77;;;;;;;1.23;85.35;101720.84;4950932;29;20441;-78
2022/01/11 00:45:37;;;;;;;26.83;15.67;;;;;;;1.26;84.63;101717.84;4954515;29;20394;-78
2022/01/11 00:48:03;;;;;;;26.93;16.53;;;;;;;1.32;84.97;101712.72;4954127;29;20496;-78
2022/01/11 00:50:28;;;;;;;25.53;15.47;;;;;;;1.36;84.69;101715.94;4953753;29;20406;-78
2022/01/11 00:52:54;;;;;;;24.33;15.70;;;;;;;1.34;83.54;101705.41;4953235;29;20448;-78
2022/01/11 00:55:19;;;;;;;28.33;15.90;;;;;;;1.30;83.91;101709.38;4953122;29;20917;-77
2022/01/11 00:57:44;;;;;;;35.03;17.33;;;;;;;1.23;83.74;101704.81;4936755;29;20465;-77
2022/01/11 01:00:11;;;;;;;28.40;16.43;;;;;;;1.21;83.70;101712.16;4946953;29;20394;-77
2022/01/11 01:02:40;;;;;;;25.80;16.07;;;;;;;1.17;84.14;101718.78;4953935;29;20445;-78
2022/01/11 01:05:06;;;;;;;26.65;16.20;;;;;;;1.17;84.53;101716.94;4953449;29;20493;-77
2022/01/11 01:07:32;;;;;;;26.73;17.07;;;;;;;1.24;84.47;101723.38;4953515;29;20544;-78
2022/01/11 01:10:04;;;;;;;25.33;16.57;;;;;;;1.29;84.43;101718.38;4939166;29;20954;-78
2022/01/11 01:12:30;;;;;;;30.35;17.58;;;;;;;1.30;84.63;101722.75;4937425;29;20390;-77
2022/01/11 01:14:56;;;;;;;26.77;16.93;;;;;;;1.32;84.76;101720.75;4953318;29;20428;-78
2022/01/11 01:17:21;;;;;;;26.50;16.80;;;;;;;1.34;85.24;101724.13;4936525;29;20437;-78
2022/01/11 01:19:47;;;;;;;27.00;17.53;;;;;;;1.35;85.17;101725.78;4953793;29;20406;-78
2022/01/11 01:22:13;;;;;;;30.20;18.37;;;;;;;1.32;85.22;101725.25;4953676;29;20397;-78
2022/01/11 01:24:38;;;;;;;25.63;17.70;;;;;;;1.33;85.47;101730.44;4952573;28;20422;-78
2022/01/11 01:27:04;;;;;;;30.50;19.60;;;;;;;1.31;85.39;101720.91;4953592;29;20408;-77
2022/01/11 01:29:29;;;;;;;34.05;19.60;;;;;;;1.34;85.88;101721.44;4953597;29;20418;-77
2022/01/11 01:31:55;;;;;;;30.38;18.10;;;;;;;1.38;86.15;101730.81;4953863;29;20499;-78
2022/01/11 01:34:21;;;;;;;30.95;18.23;;;;;;;1.44;85.66;101734.72;4936303;29;20409;-78
2022/01/11 01:36:46;;;;;;;30.25;18.08;;;;;;;1.43;85.49;101733.03;4953673;29;20409;-78
2022/01/11 01:39:12;;;;;;;29.87;18.07;;;;;;;1.39;85.37;101739.66;4951685;29;20418;-78
2022/01/11 01:41:42;;;;;;;25.95;17.08;;;;;;;1.36;86.10;101740.81;4953845;29;20440;-78
2022/01/11 01:44:08;;;;;;;29.80;17.17;;;;;;;1.36;85.70;101737.31;4953317;29;20488;-77
2022/01/11 01:46:33;;;;;;;27.00;17.20;;;;;;;1.38;85.45;101740.69;4953608;29;20493;-78
2022/01/11 01:49:00;;;;;;;24.63;16.60;;;;;;;1.42;85.05;101744.69;4953371;29;20501;-78
2022/01/11 01:51:26;;;;;;;28.90;18.02;;;;;;;1.39;85.07;101748.50;4953351;29;20481;-77
2022/01/11 01:53:51;;;;;;;30.67;18.65;;;;;;;1.35;85.47;101751.66;4952451;29;20533;-77
2022/01/11 01:56:19;;;;;;;31.02;19.52;;;;;;;1.37;85.63;101755.00;4936146;29;20414;-78
2022/01/11 01:58:44;;;;;;;29.43;18.03;;;;;;;1.36;86.02;101754.16;4953304;29;20484;-78
2022/01/11 02:01:13;;;;;;;26.55;17.75;;;;;;;1.41;85.90;101751.91;4952669;29;20673;-78
2022/01/11 02:03:40;;;;;;;31.00;19.50;;;;;;;1.45;85.80;101750.56;4953128;29;20405;-78
2022/01/11 02:06:08;;;;;;;33.90;19.67;;;;;;;1.50;86.06;101742.09;4951598;29;20825;-77
2022/01/11 02:08:33;;;;;;;32.55;19.83;;;;;;;1.44;86.29;101750.75;4953198;29;20397;-78
2022/01/11 02:10:58;;;;;;;39.63;21.67;;;;;;;1.42;86.06;101742.88;4952500;29;20866;-78
2022/01/11 02:13:24;;;;;;;35.45;19.50;;;;;;;1.40;86.29;101738.69;4951588;28;20437;-78
2022/01/11 02:15:51;;;;;;;36.10;21.63;;;;;;;1.39;86.10;101731.66;4953160;29;20426;-78
2022/01/11 02:18:20;;;;;;;35.47;21.25;;;;;;;1.39;86.36;101745.84;4953347;29;20453;-77
2022/01/11 02:20:47;;;;;;;37.40;22.52;;;;;;;1.29;86.32;101750.44;4953290;29;20484;-77
2022/01/11 02:23:17;;;;;;;38.47;22.98;;;;;;;1.33;87.05;101753.63;4953125;29;20393;-78
2022/01/11 02:25:43;;;;;;;37.80;22.50;;;;;;;1.35;87.01;101749.81;4952643;29;20405;-77
2022/01/11 02:28:11;;;;;;;37.58;22.98;;;;;;;1.35;86.57;101757.00;4935921;29;20409;-77
2022/01/11 02:30:36;;;;;;;40.95;22.98;;;;;;;1.35;87.58;101746.31;4935847;29;20426;-77
2022/01/11 02:33:07;;;;;;;41.37;23.20;;;;;;;1.42;87.55;101750.03;4952942;29;20833;-78
2022/01/11 02:35:32;;;;;;;39.55;22.48;;;;;;;1.40;87.47;101760.88;4954228;28;20429;-77
2022/01/11 02:37:58;;;;;;;47.53;23.85;;;;;;;1.38;87.56;101754.84;4956697;29;20476;-78
2022/01/11 02:40:23;;;;;;;32.50;22.23;;;;;;;1.46;87.61;101754.94;4955111;29;20948;-78
2022/01/11 02:42:48;;;;;;;37.00;21.77;;;;;;;1.56;87.75;101753.00;4955419;29;20786;-77
2022/01/11 02:45:16;;;;;;;36.60;22.40;;;;;;;1.64;86.93;101752.25;4956632;29;20929;-78
2022/01/11 02:47:43;;;;;;;36.90;22.63;;;;;;;1.66;87.46;101755.59;4956247;29;20441;-78
2022/01/11 02:50:08;;;;;;;41.53;23.63;;;;;;;1.70;87.16;101756.13;4956487;29;20398;-77
2022/01/11 02:52:34;;;;;;;41.80;23.40;;;;;;;1.68;86.93;101760.78;4956477;29;20758;-77
2022/01/11 02:55:01;;;;;;;41.83;23.27;;;;;;;1.71;86.92;101768.50;4955454;29;20425;-78
2022/01/11 02:57:26;;;;;;;41.25;22.95;;;;;;;1.65;86.84;101761.09;4956587;29;20963;-77
2022/01/11 02:59:51;;;;;;;39.90;23.40;;;;;;;1.61;87.10;101759.72;4956300;29;20402;-78
2022/01/11 03:02:17;;;;;;;42.10;24.42;;;;;;;1.55;87.43;101761.16;4956213;29;20540;-77
2022/01/11 03:04:44;;;;;;;41.47;23.97;;;;;;;1.59;86.89;101762.53;4956201;29;20460;-78
2022/01/11 03:07:09;;;;;;;41.35;24.65;;;;;;;1.55;86.88;101767.34;4956122;29;20406;-78
2022/01/11 03:09:49;;;;;;;42.58;24.42;;;;;;;1.52;87.25;101766.81;4954363;29;20425;-78
2022/01/11 03:12:15;;;;;;;43.50;25.33;;;;;;;1.48;87.46;101758.28;4956192;29;20425;-78
2022/01/11 03:14:40;;;;;;;43.70;25.47;;;;;;;1.50;87.65;101763.47;4938898;29;20516;-78
2022/01/11 03:17:05;;;;;;;46.53;26.33;;;;;;;1.45;87.50;101757.75;4955898;29;20893;-78
2022/01/11 03:19:30;;;;;;;47.03;27.70;;;;;;;1.47;87.34;101755.78;4955970;29;20409;-78
2022/01/11 03:21:56;;;;;;;44.60;26.03;;;;;;;1.47;87.25;101761.13;4955898;29;20753;-78
2022/01/11 03:24:21;;;;;;;49.63;26.30;;;;;;;1.47;87.48;101755.78;4955113;29;20502;-77
2022/01/11 03:26:46;;;;;;;41.30;24.80;;;;;;;1.43;87.65;101755.25;4955879;29;20445;-77
2022/01/11 03:29:12;;;;;;;39.60;24.90;;;;;;;1.37;87.62;101768.38;4955755;29;20539;-78
2022/01/11 03:31:37;;;;;;;47.33;27.17;;;;;;;1.35;87.73;101752.47;4955692;29;20434;-78
2022/01/11 03:34:02;;;;;;;43.97;27.37;;;;;;;1.32;87.15;101766.16;4955458;29;20405;-78
2022/01/11 03:36:27;;;;;;;43.47;25.80;;;;;;;1.31;87.58;101766.31;4955564;29;20445;-79
2022/01/11 03:38:53;;;;;;;51.07;26.53;;;;;;;1.34;88.16;101766.84;4953652;29;20410;-79
2022/01/11 03:41:18;;;;;;;44.15;25.77;;;;;;;1.34;87.61;101766.00;4955538;29;20413;-77
2022/01/11 03:43:43;;;;;;;46.23;26.60;;;;;;;1.33;87.95;101767.84;4955277;29;20402;-77
2022/01/11 03:46:09;;;;;;;46.90;26.57;;;;;;;1.24;87.63;101763.41;4955205;28;20409;-77
2022/01/11 03:48:34;;;;;;;47.90;26.20;;;;;;;1.20;87.73;101758.53;4930300;29;20406;-78
2022/01/11 03:50:59;;;;;;;48.73;27.63;;;;;;;1.17;87.99;101761.50;4955454;29;20394;-77
2022/01/11 03:53:29;;;;;;;43.83;27.53;;;;;;;1.14;87.71;101768.00;4953910;29;20900;-79
2022/01/11 03:56:10;;;;;;;45.65;28.33;;;;;;;1.14;87.80;101769.81;4939376;29;20866;-78
2022/01/11 03:58:36;;;;;;;44.75;27.02;;;;;;;1.17;87.84;101769.50;4955049;29;20405;-78
2022/01/11 04:01:01;;;;;;;51.07;29.20;;;;;;;1.14;87.47;101775.16;4955240;29;20409;-78
2022/01/11 04:03:27;;;;;;;47.93;29.17;;;;;;;1.11;88.06;101768.28;4955086;29;20809;-78
2022/01/11 04:05:52;;;;;;;55.10;30.55;;;;;;;1.08;88.30;101773.94;4954975;29;20529;-78
2022/01/11 04:08:18;;;;;;;51.08;28.73;;;;;;;1.02;88.02;101769.22;4952018;29;20785;-77
2022/01/11 04:10:43;;;;;;;49.60;27.85;;;;;;;1.05;88.02;101774.25;4954919;29;20402;-78
2022/01/11 04:13:08;;;;;;;53.57;29.57;;;;;;;0.96;88.27;101775.13;4954867;29;20394;-78
2022/01/11 04:15:34;;;;;;;48.47;28.67;;;;;;;0.97;88.62;101784.81;4954748;29;20813;-78
2022/01/11 04:17:59;;;;;;;52.70;29.13;;;;;;;1.00;88.60;101777.34;4937592;29;20414;-78
2022/01/11 04:20:24;;;;;;;51.35;30.20;;;;;;;1.01;88.71;101786.22;4953227;28;20433;-78
2022/01/11 04:22:50;;;;;;;51.20;29.40;;;;;;;0.98;88.43;101776.69;4954751;29;20517;-78
2022/01/11 04:25:17;;;;;;;52.72;29.50;;;;;;;0.93;88.29;101781.59;4954781;29;20390;-77
2022/01/11 04:27:42;;;;;;;49.30;27.02;;;;;;;0.92;88.43;101787.94;4954565;29;20398;-78
2022/01/11 04:30:08;;;;;;;50.55;27.58;;;;;;;0.90;89.06;101786.41;4937399;29;20429;-78
2022/01/11 04:32:34;;;;;;;51.28;27.92;;;;;;;0.90;89.75;101786.41;4954492;29;20739;-78
2022/01/11 04:34:59;;;;;;;48.17;26.67;;;;;;;0.93;89.24;101797.63;4952672;29;20423;-78
2022/01/11 04:37:24;;;;;;;50.50;27.70;;;;;;;0.96;89.28;101796.47;4943054;29;20928;-78
2022/01/11 04:39:50;;;;;;;54.53;29.10;;;;;;;0.99;89.33;101801.50;4937313;29;20464;-78
2022/01/11 04:42:15;;;;;;;49.90;26.37;;;;;;;0.97;89.43;101819.53;4954223;29;20484;-77
2022/01/11 04:44:41;;;;;;;49.27;27.13;;;;;;;0.93;89.39;101820.81;4954301;29;20398;-77
2022/01/11 04:47:06;;;;;;;45.17;24.67;;;;;;;1.01;89.98;101821.75;4954252;29;20449;-78
2022/01/11 04:49:32;;;;;;;42.40;25.27;;;;;;;1.07;89.93;101819.47;4953487;29;20390;-78
2022/01/11 04:51:57;;;;;;;48.55;26.23;;;;;;;1.07;89.63;101819.47;4954325;29;20798;-78
2022/01/11 04:54:23;;;;;;;42.35;24.58;;;;;;;1.16;89.68;101824.72;4953857;29;20418;-78
2022/01/11 04:56:48;;;;;;;46.35;23.85;;;;;;;1.12;89.65;101820.69;4954468;29;20747;-77
2022/01/11 04:59:13;;;;;;;43.47;24.50;;;;;;;1.18;89.74;101821.94;4953499;28;20486;-78
2022/01/11 05:01:42;;;;;;;43.50;24.93;;;;;;;1.22;89.33;101823.31;4954119;29;20602;-78
2022/01/11 05:04:07;;;;;;;38.85;23.75;;;;;;;1.21;89.42;101819.78;4953947;29;20413;-78
2022/01/11 05:06:33;;;;;;;44.55;24.55;;;;;;;1.30;88.78;101826.91;4936112;29;20739;-78
2022/01/11 05:08:58;;;;;;;42.83;24.10;;;;;;;1.35;88.86;101840.63;4953848;29;20814;-78
2022/01/11 05:11:25;;;;;;;40.47;24.20;;;;;;;1.39;89.03;101839.31;4953862;29;20742;-78
2022/01/11 05:13:50;;;;;;;40.03;23.80;;;;;;;1.43;88.77;101830.03;4953912;29;20979;-79
2022/01/11 05:16:15;;;;;;;43.30;22.37;;;;;;;1.55;88.68;101838.63;4953793;29;20432;-78
2022/01/11 05:18:40;;;;;;;43.27;23.27;;;;;;;1.55;88.03;101839.47;4953707;29;20401;-78
2022/01/11 05:21:06;;;;;;;37.03;22.60;;;;;;;1.60;88.11;101835.53;4953196;29;20473;-78
2022/01/11 05:23:33;;;;;;;44.80;22.63;;;;;;;1.62;88.07;101837.03;4952887;29;20906;-78
2022/01/11 05:25:58;;;;;;;47.57;23.10;;;;;;;1.63;87.75;101838.72;4953702;29;20450;-78
2022/01/11 05:28:23;;;;;;;52.20;22.03;;;;;;;1.66;87.75;101837.56;4953672;29;20423;-78
2022/01/11 05:30:49;;;;;;;43.17;23.00;;;;;;;1.73;87.36;101841.31;4953644;29;20413;-78
2022/01/11 05:33:14;;;;;;;38.10;22.55;;;;;;;1.70;87.74;101839.81;4951861;28;20421;-78
2022/01/11 05:35:40;;;;;;;40.37;22.27;;;;;;;1.67;87.76;101848.13;4953252;29;20508;-78
2022/01/11 05:38:05;;;;;;;39.47;22.45;;;;;;;1.66;87.89;101854.44;4953279;29;20394;-79
2022/01/11 05:40:31;;;;;;;42.27;23.50;;;;;;;1.64;87.76;101850.25;4952570;29;20512;-78
2022/01/11 05:42:56;;;;;;;39.50;22.15;;;;;;;1.74;88.23;101857.22;4951760;29;20445;-78
2022/01/11 05:45:22;;;;;;;40.60;21.57;;;;;;;1.72;87.80;101850.31;4953198;29;20472;-78
2022/01/11 05:47:48;;;;;;;46.50;23.10;;;;;;;1.72;88.18;101859.19;4953240;29;20398;-78
2022/01/11 05:50:14;;;;;;;46.33;23.05;;;;;;;1.68;88.02;101852.47;4953418;29;20438;-78
2022/01/11 05:52:40;;;;;;;40.97;23.02;;;;;;;1.65;88.26;101859.97;4961002;28;20448;-78
2022/01/11 05:55:08;;;;;;;38.00;22.40;;;;;;;1.68;87.98;101857.00;4953145;29;20440;-78
2022/01/11 05:57:34;;;;;;;44.47;22.27;;;;;;;1.67;88.02;101861.50;4952494;29;20422;-79
2022/01/11 06:00:04;;;;;;;40.80;22.52;;;;;;;1.61;88.08;101870.13;4953362;29;20409;-78
2022/01/11 06:02:29;;;;;;;37.03;21.75;;;;;;;1.64;87.95;101869.81;4953219;29;20405;-79
2022/01/11 06:04:54;;;;;;;42.73;21.60;;;;;;;1.64;88.22;101868.97;4959961;28;20420;-78
2022/01/11 06:07:20;;;;;;;35.87;22.43;;;;;;;1.66;88.48;101874.97;4956075;28;20815;-78
2022/01/11 06:09:45;;;;;;;40.87;22.33;;;;;;;1.72;88.34;101871.69;4954640;28;20428;-78
2022/01/11 06:12:10;;;;;;;40.80;22.27;;;;;;;1.72;87.79;101871.69;4957205;29;20445;-78
2022/01/11 06:14:36;;;;;;;40.38;23.27;;;;;;;1.70;88.09;101879.03;4956897;29;20500;-78
2022/01/11 06:17:01;;;;;;;42.37;24.33;;;;;;;1.71;88.02;101867.38;4956371;29;20418;-78
2022/01/11 06:19:26;;;;;;;43.83;24.33;;;;;;;1.68;87.47;101887.19;4956292;29;20409;-78
2022/01/11 06:21:52;;;;;;;45.57;25.07;;;;;;;1.69;88.06;101882.69;4955304;29;20428;-78
2022/01/11 06:24:17;;;;;;;42.88;24.90;;;;;;;1.71;87.86;101878.91;4956662;29;20419;-78
2022/01/11 06:26:43;;;;;;;41.95;22.83;;;;;;;1.71;87.81;101883.41;4956836;29;20429;-78
2022/01/11 06:29:08;;;;;;;44.10;22.93;;;;;;;1.76;87.96;101891.78;4968422;28;20400;-79
2022/01/11 06:31:35;;;;;;;42.20;22.50;;;;;;;1.68;87.87;101891.72;4956513;29;20397;-77
2022/01/11 06:34:01;;;;;;;40.28;22.10;;;;;;;1.68;88.54;101894.41;4956284;29;20405;-78
2022/01/11 06:36:27;;;;;;;38.35;22.58;;;;;;;1.71;87.88;101891.41;4955547;28;20496;-78
2022/01/11 06:38:52;;;;;;;43.47;22.50;;;;;;;1.76;88.35;101892.63;4937705;29;20557;-78
2022/01/11 06:41:18;;;;;;;44.00;22.60;;;;;;;1.80;88.00;101894.00;4951542;29;20438;-78
2022/01/11 06:43:43;;;;;;;38.88;21.85;;;;;;;1.81;87.92;101902.88;4952079;28;20453;-78
2022/01/11 06:46:08;;;;;;;36.90;22.03;;;;;;;1.79;87.58;101900.34;4954764;29;20417;-79
2022/01/11 06:48:34;;;;;;;47.57;23.13;;;;;;;1.77;87.76;101899.66;4951249;28;20426;-78
2022/01/11 06:50:59;;;;;;;40.60;23.07;;;;;;;1.82;87.72;101910.72;4956387;28;20479;-78
2022/01/11 06:53:25;;;;;;;38.03;22.13;;;;;;;1.84;87.68;101919.44;4956089;29;20416;-78
2022/01/11 06:55:53;;;;;;;43.03;23.07;;;;;;;1.84;87.36;101913.25;4949458;28;20422;-79
2022/01/11 06:58:19;;;;;;;42.08;22.33;;;;;;;1.83;87.38;101912.41;4958091;28;20405;-78
2022/01/11 07:00:44;;;;;;;40.85;24.20;;;;;;;1.85;87.88;101917.59;4946217;28;20420;-79
2022/01/11 07:03:10;;;;;;;37.85;22.67;;;;;;;1.91;87.98;101917.00;4949987;28;20427;-78
2022/01/11 07:05:35;;;;;;;40.17;22.40;;;;;;;1.93;87.42;101913.19;4949762;28;20427;-79
2022/01/11 07:08:00;;;;;;;38.10;22.83;;;;;;;1.98;87.40;101918.88;4945036;28;20430;-79
2022/01/11 07:10:26;;;;;;;38.88;22.38;;;;;;;1.97;87.40;101922.56;4949796;28;20427;-79
2022/01/11 07:12:51;;;;;;;42.23;22.77;;;;;;;1.96;87.46;101928.06;4953312;28;20412;-79
2022/01/11 07:15:16;;;;;;;37.70;23.23;;;;;;;1.92;87.25;101927.53;4950249;28;20429;-79
2022/01/11 07:17:42;;;;;;;39.87;24.07;;;;;;;1.93;87.54;101931.91;4955520;29;20398;-79
2022/01/11 07:20:08;;;;;;;36.35;22.90;;;;;;;1.90;87.71;101929.53;4953977;28;20893;-80
2022/01/11 07:22:36;;;;;;;37.90;22.02;;;;;;;1.91;87.64;101931.19;4948008;28;20417;-79
2022/01/11 07:25:01;;;;;;;41.08;23.65;;;;;;;1.92;87.45;101935.56;4955967;29;20389;-80
2022/01/11 07:27:26;;;;;;;47.80;22.87;;;;;;;1.85;87.91;101941.66;4952223;28;20417;-78
2022/01/11 07:29:52;;;;;;;40.67;23.90;;;;;;;1.84;88.17;101937.31;4939835;29;20890;-78
2022/01/11 07:32:17;;;;;;;43.37;24.80;;;;;;;1.87;87.69;101945.88;4955699;29;20503;-80
2022/01/11 07:34:43;;;;;;;40.70;23.63;;;;;;;1.86;87.93;101943.34;4955503;29;20446;-78
2022/01/11 07:37:08;;;;;;;37.37;22.80;;;;;;;1.84;88.30;101956.88;4952911;29;20401;-80
2022/01/11 07:39:33;;;;;;;41.97;24.50;;;;;;;1.86;88.33;101951.34;4962511;28;20454;-81
2022/01/11 07:41:59;;;;;;;44.73;23.70;;;;;;;1.92;88.10;101953.41;4953055;28;20447;-82
2022/01/11 07:44:25;;;;;;;38.45;21.98;;;;;;;1.98;87.76;101967.00;4953014;29;20461;-81
2022/01/11 07:46:52;;;;;;;41.03;23.13;;;;;;;2.03;87.95;101966.56;4950944;29;20417;-80
2022/01/11 07:49:18;;;;;;;42.03;22.70;;;;;;;2.09;87.78;101971.31;4947076;28;20418;-79
2022/01/11 07:51:43;;;;;;;40.65;23.05;;;;;;;2.13;87.59;101971.84;4955180;29;20951;-79
2022/01/11 07:54:08;;;;;;;40.40;23.20;;;;;;;2.12;87.87;101973.66;4933798;28;20410;-79
2022/01/11 07:56:34;;;;;;;41.77;23.17;;;;;;;2.14;87.66;101978.88;4949748;28;20503;-79
2022/01/11 07:58:59;;;;;;;39.27;24.50;;;;;;;2.19;87.15;101976.56;4949996;28;20446;-79
2022/01/11 08:01:24;;;;;;;44.22;24.55;;;;;;;2.23;87.28;101975.28;4951034;28;20769;-78
2022/01/11 08:03:50;;;;;;;40.23;23.63;;;;;;;2.28;86.77;101983.66;4948997;28;20901;-78
2022/01/11 08:06:15;;;;;;;41.30;24.23;;;;;;;2.30;86.91;101987.88;4946376;29;20948;-78
2022/01/11 08:08:41;;;;;;;41.47;24.33;;;;;;;2.31;86.46;101988.69;4954770;29;20492;-78
2022/01/11 08:11:08;;;;;;;40.97;22.85;;;;;;;2.23;86.91;101989.50;4952776;29;20948;-80
2022/01/11 08:13:33;;;;;;;39.33;23.15;;;;;;;2.28;86.76;101984.50;4943522;28;21215;-79
2022/01/11 08:15:58;;;;;;;43.17;23.43;;;;;;;2.33;87.07;101987.56;4940043;28;20429;-79
2022/01/11 08:18:24;;;;;;;37.83;22.37;;;;;;;2.33;86.74;101987.56;4948393;28;20422;-78
2022/01/11 08:20:49;;;;;;;38.38;21.75;;;;;;;2.36;86.65;101986.41;4948372;28;20426;-79
2022/01/11 08:23:15;;;;;;;38.10;23.30;;;;;;;2.37;87.00;101982.75;4949872;28;20445;-78
2022/01/11 08:25:40;;;;;;;40.17;22.13;;;;;;;2.37;86.98;101988.94;4954346;29;20774;-78
2022/01/11 08:28:06;;;;;;;36.57;21.93;;;;;;;2.41;86.53;101989.47;4955594;28;20441;-78
2022/01/11 08:30:33;;;;;;;38.27;22.70;;;;;;;2.51;86.50;101993.72;4952109;28;20477;-79
2022/01/11 08:32:58;;;;;;;31.25;20.98;;;;;;;2.54;86.41;101988.06;4952575;28;20414;-78
2022/01/11 08:35:24;;;;;;;35.90;21.67;;;;;;;2.55;86.34;101996.94;4936641;29;20517;-79
2022/01/11 08:37:50;;;;;;;39.33;21.65;;;;;;;2.61;86.29;101993.63;4931687;29;20465;-79
2022/01/11 08:40:16;;;;;;;34.70;21.95;;;;;;;2.66;86.23;101991.34;4952556;28;20417;-78
2022/01/11 08:42:42;;;;;;;40.53;21.17;;;;;;;2.70;86.13;101997.22;4954553;29;20782;-79
2022/01/11 08:45:08;;;;;;;39.58;22.45;;;;;;;2.67;85.84;101992.19;4953606;28;20418;-80
2022/01/11 08:47:34;;;;;;;37.37;21.37;;;;;;;2.61;86.28;101996.31;4936950;29;20417;-79
2022/01/11 08:50:02;;;;;;;34.22;21.45;;;;;;;2.65;86.29;101996.84;4946448;28;20895;-79
2022/01/11 08:52:28;;;;;;;36.05;20.67;;;;;;;2.69;85.86;101995.53;4952220;28;20418;-79
2022/01/11 08:54:54;;;;;;;35.22;21.20;;;;;;;2.78;86.24;101995.44;4952126;28;20417;-78
2022/01/11 08:57:20;;;;;;;35.13;22.17;;;;;;;2.81;85.67;101995.13;4945905;28;20834;-79
2022/01/11 08:59:46;;;;;;;33.03;21.23;;;;;;;2.85;85.73;101998.34;4950383;28;20787;-79
2022/01/11 09:02:13;;;;;;;36.40;20.52;;;;;;;2.84;85.45;101994.81;4953366;28;20406;-78
2022/01/11 09:04:38;;;;;;;30.70;20.30;;;;;;;2.91;85.45;101995.03;4953379;28;20417;-79
2022/01/11 09:07:05;;;;;;;30.35;20.00;;;;;;;2.93;85.35;101995.72;4953395;29;20409;-79
2022/01/11 09:09:32;;;;;;;36.53;20.58;;;;;;;2.94;85.30;101984.84;4950871;29;20452;-78
2022/01/11 09:11:58;;;;;;;33.00;19.58;;;;;;;2.90;85.50;101994.19;4953517;28;20781;-78
2022/01/11 09:14:23;;;;;;;29.48;18.70;;;;;;;2.95;85.09;101994.56;4954469;28;20410;-78
2022/01/11 09:16:49;;;;;;;31.27;19.70;;;;;;;3.01;85.11;101991.25;4953752;29;20394;-78
2022/01/11 09:19:15;;;;;;;39.55;20.55;;;;;;;3.09;84.96;101993.13;4953137;28;20757;-79
2022/01/11 09:21:43;;;;;;;31.45;18.65;;;;;;;3.11;84.89;101991.97;4953520;29;20409;-78
2022/01/11 09:24:11;;;;;;;34.25;19.83;;;;;;;3.09;84.35;101993.97;4948396;28;20469;-79
2022/01/11 09:26:38;;;;;;;30.38;19.52;;;;;;;3.19;84.51;102001.91;4942012;28;20420;-78
2022/01/11 09:29:03;;;;;;;29.03;19.77;;;;;;;3.19;84.59;102001.91;4942167;28;20933;-79
2022/01/11 09:31:28;;;;;;;32.00;19.77;;;;;;;3.23;84.62;102002.44;4927899;29;20420;-79
2022/01/11 09:33:54;;;;;;;33.97;19.97;;;;;;;3.36;84.38;101998.28;4954503;28;20898;-78
2022/01/11 09:36:19;;;;;;;26.43;18.70;;;;;;;3.36;84.09;102005.50;4953677;29;20453;-79
2022/01/11 09:38:44;;;;;;;30.73;19.97;;;;;;;3.43;83.92;102006.50;4953157;29;20406;-78
2022/01/11 09:41:10;;;;;;;32.23;18.80;;;;;;;3.49;84.19;102001.34;4952553;28;20406;-78
2022/01/11 09:43:35;;;;;;;32.63;19.58;;;;;;;3.63;83.39;102005.25;4939443;28;20511;-80
2022/01/11 09:46:01;;;;;;;28.20;19.50;;;;;;;3.81;82.99;102006.00;4950893;28;20417;-79
2022/01/11 09:48:31;;;;;;;33.50;19.17;;;;;;;3.86;82.90;102013.53;4960803;28;20824;-79
2022/01/11 09:50:57;;;;;;;31.45;18.55;;;;;;;3.94;82.53;102011.75;4956075;28;20414;-81
2022/01/11 09:53:22;;;;;;;31.20;18.60;;;;;;;4.00;82.21;102016.44;4950311;28;20409;-79
2022/01/11 09:55:48;;;;;;;28.73;18.50;;;;;;;4.10;82.00;102024.34;4933794;29;20436;-79
2022/01/11 09:58:14;;;;;;;24.33;17.43;;;;;;;4.22;82.08;102023.00;4936841;29;20484;-79
2022/01/11 10:00:41;;;;;;;29.88;19.25;;;;;;;4.30;81.23;102031.09;4950333;28;20483;-79
2022/01/11 10:03:07;;;;;;;26.58;18.15;;;;;;;4.28;81.38;102025.03;4952796;28;20410;-79
2022/01/11 10:05:33;;;;;;;31.02;19.33;;;;;;;4.33;81.06;102033.44;4950618;28;20504;-79
2022/01/11 10:07:59;;;;;;;28.23;20.27;;;;;;;4.40;81.34;102029.09;4954397;28;20447;-79
2022/01/11 10:10:26;;;;;;;29.25;19.45;;;;;;;4.55;80.64;102024.72;4951335;28;20390;-80
2022/01/11 10:12:55;;;;;;;29.50;19.65;;;;;;;4.57;80.37;102024.56;4951059;28;20516;-80
2022/01/11 10:15:26;;;;;;;28.87;19.53;;;;;;;4.71;80.35;102030.09;4960547;28;20749;-79
2022/01/11 10:17:52;;;;;;;30.30;18.50;;;;;;;4.93;79.76;102033.09;4953076;29;20406;-78
2022/01/11 10:20:20;;;;;;;26.17;18.30;;;;;;;4.98;79.18;102026.22;4950647;28;20486;-79
2022/01/11 10:22:53;;;;;;;29.95;19.27;;;;;;;5.17;78.98;102033.06;4948528;29;20813;-79
2022/01/11 10:25:19;;;;;;;27.85;18.58;;;;;;;5.24;78.17;102026.81;4948533;28;20409;-78
2022/01/11 10:27:54;;;;;;;25.23;17.50;;;;;;;5.27;78.35;102020.25;4928335;29;20418;-79
2022/01/11 10:30:23;;;;;;;26.80;17.65;;;;;;;5.32;78.35;102015.22;4952502;29;20430;-79
2022/01/11 10:32:50;;;;;;;28.60;18.05;;;;;;;5.39;78.59;102024.28;4952316;29;20425;-80
2022/01/11 10:35:40;;;;;;;29.15;17.95;;;;;;;5.47;77.76;102018.00;4952597;28;20494;-80
2022/01/11 10:38:06;;;;;;;28.40;18.42;;;;;;;5.48;77.53;102022.38;4950042;29;20893;-79
2022/01/11 10:40:54;;;;;;;23.88;17.20;;;;;;;5.56;77.05;102025.06;4952863;29;20928;-80
2022/01/11 10:43:22;;;;;;;28.30;18.60;;;;;;;5.61;76.87;102017.28;4938003;29;20743;-79
2022/01/11 10:45:50;;;;;;;28.08;17.45;;;;;;;5.59;77.05;102019.31;4947174;29;20411;-79
2022/01/11 10:48:21;;;;;;;28.73;17.77;;;;;;;5.55;77.29;102026.06;4947487;29;20522;-79
2022/01/11 10:50:49;;;;;;;30.42;17.17;;;;;;;5.67;76.93;102011.19;4948396;28;20489;-79
2022/01/11 10:53:26;;;;;;;29.98;18.27;;;;;;;5.83;76.79;102008.44;4952730;28;20417;-81
2022/01/11 10:55:54;;;;;;;24.58;17.67;;;;;;;5.86;76.57;102013.50;4950500;28;20429;-80
2022/01/11 10:58:22;;;;;;;25.90;17.47;;;;;;;5.90;76.57;102011.28;4953275;28;20421;-80
2022/01/11 11:00:50;;;;;;;24.55;18.05;;;;;;;5.83;76.20;102015.69;4955276;28;20481;-80
2022/01/11 11:03:24;;;;;;;30.30;20.08;;;;;;;5.71;76.94;102009.84;4955168;28;20410;-79
2022/01/11 11:05:55;;;;;;;27.20;18.85;;;;;;;5.52;77.59;102012.97;4946727;28;20462;-80
2022/01/11 11:08:40;;;;;;;29.23;18.42;;;;;;;5.44;77.98;102013.81;4941531;29;20418;-79
2022/01/11 11:11:09;;;;;;;25.60;18.48;;;;;;;5.47;78.52;102018.00;4956145;28;20420;-80
2022/01/11 11:13:40;;;;;;;28.42;19.52;;;;;;;5.64;77.58;102015.09;4954121;28;20406;-79
2022/01/11 11:16:13;;;;;;;26.58;19.13;;;;;;;5.86;77.06;102013.50;4925945;28;20457;-79